Aérodrome :
LOGIN :

S'inscrire | Disclaimer

   EN    FR    IT 

 










Légende :    VFR   VFR Marginal   IFR   IFR Intensif   IFR Très Intensif
Visi : 
Plafond : 
>= 8 km
>= 3000ft
5 à 8 km
1000 à 3000 ft
1500m à 5 km
500 à 1000 ft
800 à 1500m
200 à 500 ft
< 800m
< 200 ft
Symboles :   Orages  Brouillard  Fortes neiges  Fortes précipitations  Vent > 20 kt
SIGMETs :   Divers  Orages  Givrage  Turbulence  Onde Orograph.  Cendres Volcan.






- Altitude de l'aérodrome : 348 ft
- Code IATA : STN


EGSS - London Stansted

DERNIER METAR :
  • 152120Z 21010KT 9999 -RA SCT048TCU 07/05 Q0999

METARs EXPIRÉS :
  • 152050Z AUTO 20013KT 9999 -RA SCT048/// //////TCU 07/05 Q0999
  • 152020Z AUTO 20014KT 9999 FEW024 07/05 Q0999
  • 151950Z AUTO 21012KT 9999 -RA SCT024 BKN035 BKN048 07/05 Q0999
  • 151920Z AUTO 21014KT 9999 FEW029 07/04 Q0998
  • 151850Z AUTO 20013KT 9999 FEW040 07/04 Q0998

TAF AMD TAF EGSS
Valide du 15 à 20h jusqu'au 17 à 00h UTC


152020Z 1520/1624 22012KT 9999 SCT030
TEMPO 1520/1601 21016G26KT 6000 SHRA BKN012
PROB30
TEMPO 1520/1524 4000 +SHRA BKN008
BECMG 1615/1618 15004KT
PROB40 1616/1622 6000
PROB30
TEMPO 1622/1624 6000 -RA BKN008
ATIS : +44 1279 669 325



MET'MAP, la Météo Aéronautique d'un coup d'oeil ! - Copyright ORBIFLY Décembre 2007 - Disclaimer

ORBIFLY MET'MAP TEAM :

Programmation & Développement : Alexandra Zaïnal
Sur une idée originale de : Baudouin d'Aumeries
Assistance à la programmation : Marc-Olivier Méhu
Soutien technique & logistique : Manuel Goepfert

Contact : metmap@orbifly.com




SOURCES & CREDITS :

   NOAA